createdAt,value
2023-09-20T00:05:53.216Z,6.6
2023-09-20T00:11:53.404Z,6.5
2023-09-20T00:17:53.333Z,6.5
2023-09-20T00:23:53.715Z,6.4
2023-09-20T00:29:54.242Z,6.4
2023-09-20T00:35:53.955Z,6.4
2023-09-20T00:41:53.472Z,6.4
2023-09-20T00:47:54.501Z,6.4
2023-09-20T00:53:54.220Z,6.4
2023-09-20T00:59:53.534Z,6.5
2023-09-20T01:05:53.562Z,6.4
2023-09-20T01:11:53.361Z,6.3
2023-09-20T01:17:53.409Z,6.4
2023-09-20T01:23:53.419Z,6.4
2023-09-20T01:35:53.885Z,6.3
2023-09-20T01:41:53.312Z,6.3
2023-09-20T01:47:53.338Z,6.2
2023-09-20T01:53:53.957Z,6.2
2023-09-20T01:59:54.213Z,6.2
2023-09-20T02:05:54.307Z,6.2
2023-09-20T02:17:54.636Z,6.1
2023-09-20T02:23:53.378Z,6.1
2023-09-20T02:29:53.582Z,6
2023-09-20T02:35:54.213Z,6
2023-09-20T02:41:53.788Z,6
2023-09-20T02:47:53.625Z,5.9
2023-09-20T02:53:54.500Z,5.8
2023-09-20T02:59:53.831Z,5.8
2023-09-20T03:05:53.296Z,5.8
2023-09-20T03:23:53.797Z,5.6
2023-09-20T03:29:54.066Z,5.6
2023-09-20T03:35:53.689Z,5.6
2023-09-20T03:41:53.400Z,5.5
2023-09-20T03:47:53.511Z,5.5
2023-09-20T03:53:53.639Z,5.5
2023-09-20T03:59:53.441Z,5.5
2023-09-20T04:05:53.605Z,5.5
2023-09-20T04:11:53.738Z,5.5
2023-09-20T04:17:53.601Z,5.3
2023-09-20T04:23:53.759Z,5.3
2023-09-20T04:29:53.997Z,5.2
2023-09-20T04:35:53.655Z,5.2
2023-09-20T04:41:53.549Z,5.2
2023-09-20T04:47:54.265Z,5.2
2023-09-20T04:53:53.652Z,5.2
2023-09-20T04:59:53.930Z,5.1
2023-09-20T05:05:54.621Z,5.1
2023-09-20T05:11:54.276Z,5.1
2023-09-20T05:17:54.070Z,5.1
2023-09-20T05:23:53.711Z,5
2023-09-20T05:29:53.662Z,5
2023-09-20T05:35:53.540Z,5
2023-09-20T05:41:53.407Z,5
2023-09-20T05:47:54.092Z,5
2023-09-20T05:53:53.473Z,5.1
2023-09-20T05:59:53.350Z,5.1
2023-09-20T06:05:53.554Z,5
2023-09-20T06:11:53.700Z,5
2023-09-20T06:17:53.450Z,5
2023-09-20T06:23:53.641Z,5.1
2023-09-20T06:29:53.423Z,5
2023-09-20T06:41:53.966Z,5
2023-09-20T06:47:53.862Z,5.1
2023-09-20T06:53:53.902Z,5.1
2023-09-20T06:59:53.611Z,5.2
2023-09-20T07:05:53.634Z,5.2
2023-09-20T07:11:53.585Z,5.3
2023-09-20T07:17:54.391Z,5.3
2023-09-20T07:23:53.509Z,5.3
2023-09-20T07:29:53.886Z,5.3
2023-09-20T07:35:53.690Z,5.4
2023-09-20T07:41:53.429Z,5.4
2023-09-20T07:47:53.524Z,5.5
2023-09-20T07:53:54.021Z,5.5
2023-09-20T07:59:53.411Z,5.5
2023-09-20T08:05:54.399Z,5.6
2023-09-20T08:11:53.470Z,5.7
2023-09-20T08:17:53.877Z,5.6
2023-09-20T08:23:54.040Z,5.9
2023-09-20T08:29:55.123Z,6.2
2023-09-20T08:35:53.642Z,6.2
2023-09-20T08:41:53.695Z,6.2
2023-09-20T08:47:53.797Z,6.4
2023-09-20T08:59:53.562Z,6.5
2023-09-20T09:05:53.724Z,6.4
2023-09-20T09:11:53.621Z,6.5
2023-09-20T09:23:53.799Z,6.4
2023-09-20T09:29:53.686Z,6.5
2023-09-20T09:35:54.151Z,7.3
2023-09-20T09:41:53.752Z,7.4
2023-09-20T09:48:02.825Z,7.4
2023-09-20T09:53:54.546Z,7.1
2023-09-20T09:59:55.700Z,7.6
2023-09-20T10:05:57.981Z,7.7
2023-09-20T10:11:57.456Z,7.7
2023-09-20T10:17:58.661Z,8.2
2023-09-20T10:23:58.612Z,8.2
2023-09-20T10:29:55.556Z,8.3
2023-09-20T10:35:58.129Z,8.5
2023-09-20T10:41:57.652Z,8.3
2023-09-20T10:47:55.955Z,8.4
2023-09-20T10:53:53.553Z,8.6
2023-09-20T10:59:53.500Z,8.6
2023-09-20T11:11:53.592Z,8.8
2023-09-20T11:17:54.063Z,8.8
2023-09-20T11:23:53.734Z,9.1
2023-09-20T11:29:53.589Z,8.6
2023-09-20T11:35:54.019Z,8.8
2023-09-20T11:47:54.361Z,8.8
2023-09-20T11:53:54.238Z,8.8
2023-09-20T11:59:54.311Z,8.7
2023-09-20T12:05:53.655Z,9.1
2023-09-20T12:11:53.995Z,9.2
2023-09-20T12:17:53.876Z,10.2
2023-09-20T12:23:54.109Z,10.6
2023-09-20T12:35:53.676Z,11.4
2023-09-20T12:41:54.660Z,11
2023-09-20T12:47:54.097Z,11.3
2023-09-20T12:53:53.765Z,11.3
2023-09-20T12:59:53.790Z,11.2
2023-09-20T13:05:54.114Z,11.5
2023-09-20T13:11:53.703Z,11.6
2023-09-20T13:23:53.703Z,12
2023-09-20T13:29:53.635Z,12
2023-09-20T13:35:53.843Z,12.1
2023-09-20T13:41:53.599Z,12.3
2023-09-20T13:47:53.840Z,12.3
2023-09-20T13:53:53.635Z,12.6
2023-09-20T13:59:53.999Z,12.8
2023-09-20T14:05:53.685Z,13.1
2023-09-20T14:17:54.103Z,14.1
2023-09-20T14:23:53.652Z,14.4
2023-09-20T14:29:53.590Z,14
2023-09-20T14:35:53.889Z,15
2023-09-20T14:41:53.958Z,14.8
2023-09-20T14:47:54.187Z,14.2
2023-09-20T14:53:54.337Z,14
2023-09-20T14:59:54.311Z,14.7
2023-09-20T15:05:53.715Z,15.8
2023-09-20T15:17:53.871Z,15.5
2023-09-20T15:23:54.206Z,16.5
2023-09-20T15:29:53.831Z,16.6
2023-09-20T15:35:54.161Z,17
2023-09-20T15:47:53.953Z,16.9
2023-09-20T15:53:53.849Z,17.5
2023-09-20T15:59:53.958Z,18
2023-09-20T16:05:53.643Z,18.3
2023-09-20T16:11:53.850Z,18.1
2023-09-20T16:23:54.284Z,17.6
2023-09-20T16:29:54.121Z,17.1
2023-09-20T16:35:53.589Z,15.9
2023-09-20T16:41:54.232Z,14.2
2023-09-20T16:47:54.363Z,13.4
2023-09-20T16:53:53.654Z,12.6
2023-09-20T16:59:53.903Z,12.3
2023-09-20T17:05:54.872Z,12
2023-09-20T17:17:54.438Z,11.5
2023-09-20T17:23:55.171Z,11.1
2023-09-20T17:29:54.830Z,10.9
2023-09-20T17:35:53.697Z,10.6
2023-09-20T17:41:53.632Z,10.3
2023-09-20T17:47:54.385Z,10.2
2023-09-20T17:53:53.956Z,9.9
2023-09-20T17:59:54.827Z,9.3
2023-09-20T18:05:54.318Z,9.2
2023-09-20T18:11:54.667Z,9
2023-09-20T18:17:54.561Z,8.5
2023-09-20T18:23:54.110Z,8.4
2023-09-20T18:29:54.101Z,8.1
2023-09-20T18:35:53.750Z,8
2023-09-20T18:41:54.366Z,7.9
2023-09-20T18:47:53.917Z,7.7
2023-09-20T18:53:53.994Z,7.5
2023-09-20T18:59:54.609Z,7.6
2023-09-20T19:05:54.229Z,7.5
2023-09-20T19:11:53.602Z,7.5
2023-09-20T19:17:54.858Z,7.4
2023-09-20T19:23:53.977Z,7.4
2023-09-20T19:29:53.881Z,7.4
2023-09-20T19:35:54.202Z,7.3
2023-09-20T19:41:54.154Z,7.2
2023-09-20T19:47:54.594Z,7.2
2023-09-20T19:53:54.519Z,7.2
2023-09-20T19:59:53.884Z,7.2
2023-09-20T20:05:53.804Z,7.1
2023-09-20T20:11:53.923Z,7.1
2023-09-20T20:17:53.877Z,7
2023-09-20T20:23:53.650Z,6.8
2023-09-20T20:29:53.813Z,6.7
2023-09-20T20:35:54.219Z,6.7
2023-09-20T20:41:53.922Z,6.7
2023-09-20T20:47:54.312Z,6.6
2023-09-20T20:53:54.090Z,6.5
2023-09-20T20:59:53.897Z,6.4
2023-09-20T21:05:53.970Z,6.3
2023-09-20T21:11:53.876Z,6.3
2023-09-20T21:17:54.365Z,6.4
2023-09-20T21:23:54.120Z,6.3
2023-09-20T21:29:54.434Z,6.2
2023-09-20T21:35:53.794Z,6.2
2023-09-20T21:41:53.779Z,6.2
2023-09-20T21:47:53.815Z,6.2
2023-09-20T21:53:54.062Z,6.2
2023-09-20T21:59:53.996Z,6.2
2023-09-20T22:05:54.029Z,6.3
2023-09-20T22:11:54.057Z,6.2
2023-09-20T22:17:54.240Z,6.3
2023-09-20T22:23:53.756Z,6.3
2023-09-20T22:29:54.674Z,6.3
2023-09-20T22:36:04.155Z,6.4
2023-09-20T22:41:54.286Z,6.4
2023-09-20T22:47:54.464Z,6.4
2023-09-20T22:53:54.134Z,6.5
2023-09-20T22:59:54.670Z,6.5
2023-09-20T23:05:53.997Z,6.6
2023-09-20T23:11:54.018Z,6.5
2023-09-20T23:17:54.239Z,6.6
2023-09-20T23:23:54.013Z,6.6
2023-09-20T23:29:55.179Z,6.6
2023-09-20T23:35:53.887Z,6.6
2023-09-20T23:41:54.382Z,6.6
2023-09-20T23:47:54.003Z,6.6
2023-09-20T23:53:54.319Z,6.6
2023-09-20T23:59:54.171Z,6.5
